航空気象通報

ウインドサーファーのための航空気象通報による風予報です。

6/13-6/15の航空気象通報

2017年06月14日 00時52分13秒 | TAF
羽田空港
TAF AMD RJTT 131354Z 1313/1418 03014KT 8000 FEW008 BKN020
TEMPO 1315/1321 FEW005 BKN008
BECMG 1406/1409 09010KT
日本時間13日22時-14日15時:030度から14ノットの風
15-18時:風が変化
18時-15日03時:090度から10ノットの風


静岡空港
TAF RJNS 131108Z 1312/1418 33004KT 9999 FEW020 BKN030
BECMG 1322/1400 24016KT
BECMG 1412/1415 31006KT
日本時間13日21時-14日07時:330度から4ノットの風
07-09時:風が変化
09-21時:240度から16ノットの風
21-24時:風が変化
15日00-03時:310度から6ノットの風


福岡空港
TAF RJFF 131105Z 1312/1418 30005KT CAVOK
BECMG 1313/1315 16003KT
BECMG 1400/1403 32010KT
BECMG 1412/1415 15004KT
日本時間13日21-22時:300度から5ノットの風
22-24時:風が変化
14日00-09時:160度から3ノットの風
09-12時:風が変化
12-21時:320度から10ノットの風
21-24時:風が変化
15日00-03時:150度から4ノットの風


那覇空港
TAF ROAH 131105Z 1312/1418 20010KT 9999 FEW008 BKN015
TEMPO 1312/1318 -TSRA FEW006 BKN008 FEW020CB
TEMPO 1318/1400 3000 TSRA FEW006 BKN008 FEW020CB
TEMPO 1400/1409 -TSRA FEW006 BKN010 FEW020CB
TEMPO 1409/1415 3000 TSRA FEW006 BKN010 FEW020CB
日本時間13日12時-15日03時:200度から10ノットの風

但し、13日21時-14日24時の間:ときどき

石垣空港
TAF ROIG 131107Z 1312/1418 21016KT 9999 FEW008 BKN015
TEMPO 1315/1321 FEW006 BKN008
TEMPO 1400/1409 21022G32KT
TEMPO 1409/1412 3000 TSRA FEW006 BKN008 FEW020CB
BECMG 1412/1415 34010KT
日本時間13日21時-14日21時:210度から16ノットの風
但し、14日09-18時の間:ときどき210度から22ノット、突風32ノット
21-24時:風が変化
15日00-03時:340度から10ノットの風

但し、14日18-21時の間:ときどき

マウイのカフルイ空港
PHOG 131140Z 1312/1412 06009KT P6SM SKC
FM131400 05008KT P6SM VCSH SCT025 BKN050
FM132000 05015G23KT P6SM VCSH SCT025 BKN050
FM140500 06012G18KT P6SM VCSH SCT030 BKN050 AMD LTD TO VIS AND WIND TIL 131600
ハワイ時間13日02-04時:060度から9ノットの風

04-10時:050度から8ノットの風
10-19時:050度から15ノット、突風23ノット
19時-14日02時:060度から12ノット、突風18ノット


サイパン空港
TAF PGSN 131120Z 1312/1412 08008KT P6SM VCSH FEW025 SCT100
マリアナ時間13日22時-14日22時:080度から8ノットの風

ジャンル:
お天気
コメント   この記事についてブログを書く
この記事をはてなブックマークに追加
« 6/12-6/14の航空気象通報 | トップ | 6/15-6/17の航空気象通報 »
最近の画像もっと見る

コメントを投稿

ブログ作成者から承認されるまでコメントは反映されません。

コメント利用規約に同意の上コメント投稿を行ってください。

数字4桁を入力し、投稿ボタンを押してください。

あわせて読む

トラックバック

この記事のトラックバック  Ping-URL
ブログ作成者から承認されるまでトラックバックは反映されません。
  • 30日以上前の記事に対するトラックバックは受け取らないよう設定されております。
  • 送信元の記事内容が半角英数のみのトラックバックは受け取らないよう設定されております。
  • このブログへのリンクがない記事からのトラックバックは受け取らないよう設定されております。
  • ※ブログ管理者のみ、編集画面で設定の変更が可能です。